createdAt,value
2019-05-14T00:00:41.937Z,86.10
2019-05-14T00:03:12.746Z,86.40
2019-05-14T00:05:43.000Z,85.30
2019-05-14T00:08:13.419Z,85.80
2019-05-14T00:10:43.808Z,85.80
2019-05-14T00:13:14.121Z,86.90
2019-05-14T00:15:53.140Z,86.80
2019-05-14T00:18:23.444Z,86.50
2019-05-14T00:20:53.891Z,86.80
2019-05-14T00:23:28.301Z,87.30
2019-05-14T00:26:07.664Z,86.80
2019-05-14T00:28:38.495Z,87.00
2019-05-14T00:31:12.124Z,87.00
2019-05-14T00:33:43.715Z,86.70
2019-05-14T00:36:14.055Z,86.80
2019-05-14T00:38:48.085Z,86.20
2019-05-14T00:41:18.500Z,87.20
2019-05-14T00:43:51.406Z,88.00
2019-05-14T00:46:23.491Z,87.30
2019-05-14T00:48:53.809Z,88.00
2019-05-14T00:51:25.609Z,88.10
2019-05-14T00:53:55.940Z,87.70
2019-05-14T00:56:45.522Z,86.80
2019-05-14T00:59:17.122Z,87.10
2019-05-14T01:01:47.353Z,86.90
2019-05-14T01:04:17.737Z,87.10
2019-05-14T01:06:48.064Z,87.10
2019-05-14T01:09:18.385Z,87.60
2019-05-14T01:12:09.358Z,88.00
2019-05-14T01:14:42.370Z,87.90
2019-05-14T01:17:15.562Z,87.70
2019-05-14T01:19:45.702Z,86.70
2019-05-14T01:22:15.697Z,87.20
2019-05-14T01:24:48.831Z,88.10
2019-05-14T01:27:23.554Z,88.60
2019-05-14T01:29:53.602Z,88.80
2019-05-14T01:32:23.795Z,89.60
2019-05-14T01:34:54.029Z,89.30
2019-05-14T01:37:24.096Z,88.40
2019-05-14T01:39:54.182Z,88.30
2019-05-14T01:42:24.311Z,89.00
2019-05-14T01:44:55.519Z,89.70
2019-05-14T01:47:25.583Z,90.10
2019-05-14T01:49:56.627Z,90.30
2019-05-14T01:52:26.803Z,90.20
2019-05-14T01:54:56.861Z,90.10
2019-05-14T01:57:26.938Z,89.90
2019-05-14T01:59:57.002Z,90.00
2019-05-14T02:02:27.219Z,90.10
2019-05-14T02:04:57.342Z,90.00
2019-05-14T02:07:31.441Z,90.20
2019-05-14T02:10:04.774Z,90.50
2019-05-14T02:12:34.845Z,90.60
2019-05-14T02:15:06.870Z,90.20
2019-05-14T02:17:37.492Z,90.10
2019-05-14T02:20:12.328Z,90.00
2019-05-14T02:22:42.054Z,89.80
2019-05-14T02:25:14.090Z,90.30
2019-05-14T02:27:45.820Z,90.20
2019-05-14T02:30:20.216Z,90.00
2019-05-14T02:32:49.967Z,89.50
2019-05-14T02:35:20.345Z,89.60
2019-05-14T02:37:50.742Z,89.30
2019-05-14T02:40:21.976Z,89.70
2019-05-14T02:42:52.111Z,90.10
2019-05-14T02:45:22.162Z,90.20
2019-05-14T02:47:52.250Z,89.80
2019-05-14T02:50:41.658Z,90.40
2019-05-14T02:53:11.738Z,90.20
2019-05-14T02:55:44.772Z,90.20
2019-05-14T02:58:14.841Z,90.40
2019-05-14T03:00:48.994Z,90.40
2019-05-14T03:03:19.234Z,90.70
2019-05-14T03:05:49.872Z,90.90
2019-05-14T03:08:20.237Z,90.40
2019-05-14T03:10:50.831Z,90.40
2019-05-14T03:13:21.108Z,90.20
2019-05-14T03:15:51.354Z,90.00
2019-05-14T03:18:21.562Z,90.20
2019-05-14T03:20:53.356Z,90.10
2019-05-14T03:23:23.539Z,90.00
2019-05-14T03:26:29.735Z,90.60
2019-05-14T03:32:03.307Z,90.50
2019-05-14T03:34:33.049Z,91.00
2019-05-14T03:37:05.455Z,91.00
2019-05-14T03:39:35.604Z,91.20
2019-05-14T03:42:05.739Z,90.90
2019-05-14T03:44:39.913Z,90.60
2019-05-14T03:47:10.680Z,90.50
2019-05-14T03:49:41.142Z,91.00
2019-05-14T03:52:30.630Z,90.50
2019-05-14T03:55:09.343Z,90.40
2019-05-14T03:57:40.255Z,90.50
2019-05-14T04:00:31.961Z,90.60
2019-05-14T04:03:03.894Z,90.80
2019-05-14T04:05:34.261Z,90.70
2019-05-14T04:08:09.502Z,90.70
2019-05-14T04:10:40.202Z,90.60
2019-05-14T04:13:13.230Z,90.40
2019-05-14T04:15:45.750Z,90.50
2019-05-14T04:18:18.593Z,90.50
2019-05-14T04:20:50.429Z,90.90
2019-05-14T04:23:23.195Z,90.90
2019-05-14T04:26:00.235Z,90.60
2019-05-14T04:28:35.063Z,91.10
2019-05-14T04:31:05.706Z,90.40
2019-05-14T04:33:39.278Z,90.40
2019-05-14T04:36:11.279Z,90.30
2019-05-14T04:38:41.386Z,90.50
2019-05-14T04:41:11.574Z,90.50
2019-05-14T04:43:42.959Z,90.40
2019-05-14T04:46:13.098Z,90.30
2019-05-14T04:48:44.205Z,90.30
2019-05-14T04:51:19.895Z,90.40
2019-05-14T04:54:02.667Z,90.40
2019-05-14T04:56:40.421Z,90.50
2019-05-14T04:59:12.420Z,90.50
2019-05-14T05:01:49.031Z,90.40
2019-05-14T05:04:41.174Z,90.40
2019-05-14T05:07:10.923Z,90.60
2019-05-14T05:09:41.697Z,90.90
2019-05-14T05:12:13.471Z,90.60
2019-05-14T05:14:43.627Z,90.60
2019-05-14T05:17:19.614Z,90.40
2019-05-14T05:19:59.104Z,90.20
2019-05-14T05:22:28.648Z,90.30
2019-05-14T05:25:08.404Z,90.40
2019-05-14T05:27:39.862Z,90.40
2019-05-14T05:30:14.595Z,90.30
2019-05-14T05:32:49.569Z,90.20
2019-05-14T05:35:22.874Z,90.30
2019-05-14T05:37:53.017Z,90.10
2019-05-14T05:40:24.412Z,89.90
2019-05-14T05:42:54.899Z,89.30
2019-05-14T05:45:25.039Z,89.40
2019-05-14T05:47:58.334Z,89.00
2019-05-14T05:50:28.709Z,89.20
2019-05-14T05:52:59.067Z,88.70
2019-05-14T05:55:29.419Z,88.50
2019-05-14T05:57:59.590Z,88.40
2019-05-14T06:00:35.594Z,88.20
2019-05-14T06:03:10.263Z,87.70
2019-05-14T06:05:38.935Z,87.80
2019-05-14T06:08:09.313Z,87.80
2019-05-14T06:10:39.964Z,87.20
2019-05-14T06:13:13.669Z,87.70
2019-05-14T06:15:47.880Z,85.80
2019-05-14T06:18:18.365Z,85.90
2019-05-14T06:20:58.733Z,86.80
2019-05-14T06:23:29.169Z,85.00
2019-05-14T06:25:59.990Z,85.50
2019-05-14T06:28:33.611Z,84.90
2019-05-14T06:31:04.266Z,84.30
2019-05-14T06:33:34.501Z,85.20
2019-05-14T06:36:04.739Z,85.40
2019-05-14T06:38:38.876Z,83.90
2019-05-14T06:41:09.582Z,81.80
2019-05-14T06:43:39.911Z,82.40
2019-05-14T06:46:11.692Z,80.80
2019-05-14T06:48:41.984Z,80.70
2019-05-14T06:51:12.704Z,78.90
2019-05-14T06:53:42.960Z,76.60
2019-05-14T06:56:38.556Z,77.80
2019-05-14T06:59:28.775Z,76.80
2019-05-14T07:02:00.835Z,77.40
2019-05-14T07:04:32.267Z,76.90
2019-05-14T07:07:08.515Z,76.20
2019-05-14T07:09:39.097Z,74.80
2019-05-14T07:12:12.250Z,73.90
2019-05-14T07:14:43.970Z,73.10
2019-05-14T07:17:15.281Z,71.50
2019-05-14T07:19:49.147Z,70.10
2019-05-14T07:22:20.612Z,69.70
2019-05-14T07:24:50.863Z,71.10
2019-05-14T07:27:21.186Z,69.00
2019-05-14T07:29:54.476Z,68.70
2019-05-14T07:32:24.813Z,68.60
2019-05-14T07:34:55.177Z,69.40
2019-05-14T07:37:25.487Z,67.90
2019-05-14T07:39:57.838Z,68.30
2019-05-14T07:42:28.941Z,69.30
2019-05-14T07:44:59.330Z,67.30
2019-05-14T07:47:29.631Z,65.60
2019-05-14T07:49:59.976Z,63.80
2019-05-14T07:52:30.303Z,63.80
2019-05-14T07:55:01.845Z,61.40
2019-05-14T07:57:32.147Z,59.70
2019-05-14T08:00:05.071Z,59.80
2019-05-14T08:02:35.374Z,60.50
2019-05-14T08:05:09.735Z,59.90
2019-05-14T08:07:40.108Z,59.40
2019-05-14T08:10:10.626Z,61.10
2019-05-14T08:12:42.201Z,60.70
2019-05-14T08:15:18.642Z,60.80
2019-05-14T08:17:45.147Z,58.80
2019-05-14T08:20:15.600Z,61.40
2019-05-14T08:22:45.921Z,61.70
2019-05-14T08:25:18.868Z,59.80
2019-05-14T08:27:48.603Z,60.30
2019-05-14T08:30:19.012Z,61.70
2019-05-14T08:32:49.345Z,59.80
2019-05-14T08:35:19.667Z,60.80
2019-05-14T08:38:03.447Z,58.60
2019-05-14T08:40:21.918Z,58.80
2019-05-14T08:43:04.022Z,57.10
2019-05-14T08:45:34.159Z,56.20
2019-05-14T08:48:04.327Z,54.80
2019-05-14T08:50:34.458Z,54.50
2019-05-14T08:53:05.191Z,55.30
2019-05-14T08:55:35.309Z,56.10
2019-05-14T08:58:14.133Z,55.90
2019-05-14T09:00:44.653Z,54.60
2019-05-14T09:03:14.681Z,52.80
2019-05-14T09:05:46.273Z,52.40
2019-05-14T09:08:19.056Z,52.70
2019-05-14T09:10:49.704Z,53.80
2019-05-14T09:13:20.016Z,53.40
2019-05-14T09:15:50.203Z,54.10
2019-05-14T09:18:21.812Z,54.80
2019-05-14T09:20:51.934Z,54.80
2019-05-14T09:23:22.095Z,54.40
2019-05-14T09:25:53.334Z,53.90
2019-05-14T09:28:24.031Z,54.50
2019-05-14T09:30:54.197Z,53.10
2019-05-14T09:33:24.487Z,54.30
2019-05-14T09:36:10.980Z,53.80
2019-05-14T09:38:30.555Z,54.60
2019-05-14T09:41:11.262Z,53.90
2019-05-14T09:43:35.093Z,54.20
2019-05-14T09:46:05.235Z,52.60
2019-05-14T09:48:38.001Z,51.70
2019-05-14T09:51:09.296Z,52.10
2019-05-14T09:53:41.201Z,53.20
2019-05-14T09:56:11.408Z,52.10
2019-05-14T09:58:41.912Z,52.40
2019-05-14T10:01:12.183Z,52.70
2019-05-14T10:03:42.417Z,52.50
2019-05-14T10:06:12.471Z,50.90
2019-05-14T10:08:42.540Z,51.60
2019-05-14T10:11:12.745Z,51.60
2019-05-14T10:13:42.875Z,52.60
2019-05-14T10:16:12.869Z,51.10
2019-05-14T10:18:44.085Z,51.00
2019-05-14T10:21:15.273Z,52.20
2019-05-14T10:23:45.471Z,51.00
2019-05-14T10:26:18.719Z,51.60
2019-05-14T10:28:48.624Z,51.40
2019-05-14T10:31:18.966Z,51.40
2019-05-14T10:34:01.379Z,51.80
2019-05-14T10:36:33.181Z,50.00
2019-05-14T10:39:04.466Z,49.30
2019-05-14T10:41:34.746Z,51.10
2019-05-14T10:44:05.130Z,51.80
2019-05-14T10:46:35.177Z,50.30
2019-05-14T10:49:16.315Z,50.20
2019-05-14T10:51:38.912Z,50.70
2019-05-14T10:54:20.982Z,49.50
2019-05-14T10:56:40.525Z,50.10
2019-05-14T10:59:10.660Z,49.90
2019-05-14T11:01:41.053Z,49.80
2019-05-14T11:04:11.297Z,48.90
2019-05-14T11:06:49.101Z,50.00
2019-05-14T11:09:19.547Z,50.70
2019-05-14T11:12:02.220Z,50.50
2019-05-14T11:14:32.460Z,50.30
2019-05-14T11:17:03.815Z,51.10
2019-05-14T11:19:33.858Z,50.20
2019-05-14T11:24:59.131Z,51.00
2019-05-14T11:27:29.306Z,50.50
2019-05-14T11:30:00.557Z,51.20
2019-05-14T11:32:30.896Z,50.50
2019-05-14T11:35:01.160Z,49.40
2019-05-14T11:37:32.806Z,49.50
2019-05-14T11:40:03.413Z,49.20
2019-05-14T11:42:33.709Z,50.00
2019-05-14T11:45:05.799Z,48.20
2019-05-14T11:47:37.639Z,49.10
2019-05-14T11:50:10.160Z,49.40
2019-05-14T11:52:41.495Z,47.40
2019-05-14T11:55:13.821Z,47.90
2019-05-14T11:57:48.392Z,47.80
2019-05-14T12:00:19.600Z,47.50
2019-05-14T12:02:50.065Z,47.50
2019-05-14T12:05:20.217Z,47.90
2019-05-14T12:07:50.349Z,47.70
2019-05-14T12:10:22.382Z,47.10
2019-05-14T12:12:52.431Z,45.80
2019-05-14T12:15:22.732Z,46.80
2019-05-14T12:17:59.263Z,46.20
2019-05-14T12:20:29.686Z,45.40
2019-05-14T12:22:59.400Z,46.20
2019-05-14T12:25:29.668Z,46.10
2019-05-14T12:28:04.443Z,46.40
2019-05-14T12:30:34.621Z,46.60
2019-05-14T12:33:04.755Z,45.60
2019-05-14T12:35:34.878Z,45.50
2019-05-14T12:38:06.783Z,45.20
2019-05-14T12:40:38.276Z,44.30
2019-05-14T12:43:09.618Z,43.50
2019-05-14T12:45:39.999Z,43.00
2019-05-14T12:48:18.740Z,43.40
2019-05-14T12:50:49.342Z,44.20
2019-05-14T12:53:20.052Z,45.10
2019-05-14T12:55:50.357Z,44.60
2019-05-14T12:58:20.584Z,44.90
2019-05-14T13:00:50.898Z,43.00
2019-05-14T13:03:21.025Z,43.40
2019-05-14T13:05:51.133Z,42.10
2019-05-14T13:08:21.250Z,42.50
2019-05-14T13:10:51.780Z,40.20
2019-05-14T13:13:21.904Z,38.80
2019-05-14T13:15:53.885Z,37.00
2019-05-14T13:18:23.968Z,37.50
2019-05-14T13:20:54.230Z,39.70
2019-05-14T13:23:24.313Z,40.40
2019-05-14T13:25:54.385Z,38.80
2019-05-14T13:28:25.576Z,40.40
2019-05-14T13:30:55.798Z,40.80
2019-05-14T13:33:28.325Z,41.10
2019-05-14T13:35:59.413Z,41.90
2019-05-14T13:38:29.384Z,41.10
2019-05-14T13:40:59.613Z,39.50
2019-05-14T13:43:30.395Z,39.70
2019-05-14T13:46:00.967Z,40.10
2019-05-14T13:48:31.083Z,37.90
2019-05-14T13:51:01.318Z,38.20
2019-05-14T13:53:32.706Z,39.20
2019-05-14T13:56:02.989Z,38.60
2019-05-14T13:58:33.147Z,38.80
2019-05-14T14:01:03.322Z,38.60
2019-05-14T14:03:33.601Z,38.80
2019-05-14T14:06:05.361Z,39.00
2019-05-14T14:08:35.458Z,38.80
2019-05-14T14:11:05.549Z,39.60
2019-05-14T14:13:41.296Z,39.10
2019-05-14T14:16:14.524Z,40.40
2019-05-14T14:18:43.675Z,39.60
2019-05-14T14:21:13.810Z,39.20
2019-05-14T14:23:43.993Z,39.30
2019-05-14T14:26:14.186Z,38.80
2019-05-14T14:28:44.413Z,39.70
2019-05-14T14:31:14.548Z,41.20
2019-05-14T14:33:44.774Z,40.10
2019-05-14T14:36:14.945Z,41.60
2019-05-14T14:38:45.175Z,41.90
2019-05-14T14:41:15.321Z,40.50
2019-05-14T14:43:51.991Z,40.30
2019-05-14T14:46:19.640Z,40.40
2019-05-14T14:48:49.521Z,40.70
2019-05-14T14:51:20.767Z,40.40
2019-05-14T14:54:00.815Z,40.30
2019-05-14T14:56:22.740Z,41.40
2019-05-14T14:58:54.785Z,41.20
2019-05-14T15:01:24.889Z,41.50
2019-05-14T15:03:55.064Z,41.90
2019-05-14T15:06:25.193Z,42.20
2019-05-14T15:08:55.266Z,42.00
2019-05-14T15:11:29.200Z,43.40
2019-05-14T15:13:58.893Z,42.10
2019-05-14T15:16:29.322Z,41.80
2019-05-14T15:18:59.553Z,42.10
2019-05-14T15:21:30.100Z,41.80
2019-05-14T15:24:09.750Z,42.90
2019-05-14T15:26:32.070Z,43.20
2019-05-14T15:29:03.201Z,43.40
2019-05-14T15:31:33.343Z,43.60
2019-05-14T15:34:05.082Z,43.30
2019-05-14T15:36:35.175Z,44.50
2019-05-14T15:39:09.715Z,44.90
2019-05-14T15:41:40.023Z,45.20
2019-05-14T15:44:10.245Z,46.20
2019-05-14T15:46:41.754Z,46.30
2019-05-14T15:49:12.427Z,47.00
2019-05-14T15:51:44.459Z,48.20
2019-05-14T15:54:34.979Z,46.90
2019-05-14T15:56:46.243Z,46.70
2019-05-14T15:59:19.119Z,46.70
2019-05-14T16:01:48.210Z,47.40
2019-05-14T16:04:20.848Z,48.20
2019-05-14T16:06:50.171Z,49.30
2019-05-14T16:09:20.368Z,49.90
2019-05-14T16:11:50.590Z,48.90
2019-05-14T16:14:20.574Z,49.00
2019-05-14T16:16:52.464Z,48.80
2019-05-14T16:19:25.133Z,49.60
2019-05-14T16:21:55.279Z,48.50
2019-05-14T16:24:25.332Z,48.30
2019-05-14T16:26:55.525Z,48.70
2019-05-14T16:29:40.405Z,48.10
2019-05-14T16:32:03.155Z,47.80
2019-05-14T16:34:40.966Z,48.40
2019-05-14T16:37:11.383Z,48.70
2019-05-14T16:39:41.783Z,48.40
2019-05-14T16:45:18.691Z,48.90
2019-05-14T16:47:49.137Z,48.80
2019-05-14T16:50:20.888Z,49.30
2019-05-14T16:52:51.095Z,49.50
2019-05-14T16:55:26.469Z,49.00
2019-05-14T16:57:54.150Z,48.90
2019-05-14T17:00:24.383Z,49.10
2019-05-14T17:02:59.122Z,49.10
2019-05-14T17:05:34.037Z,49.80
2019-05-14T17:08:05.841Z,49.50
2019-05-14T17:10:40.462Z,49.30
2019-05-14T17:13:10.677Z,49.30
2019-05-14T17:15:43.630Z,49.60
2019-05-14T17:18:19.256Z,50.30
2019-05-14T17:20:51.145Z,51.10
2019-05-14T17:23:40.356Z,51.40
2019-05-14T17:26:10.369Z,51.10
2019-05-14T17:28:41.349Z,51.20
2019-05-14T17:31:11.565Z,50.70
2019-05-14T17:42:33.009Z,52.10
2019-05-14T17:45:11.635Z,52.50
2019-05-14T17:47:43.411Z,53.10
2019-05-14T17:50:15.008Z,54.00
2019-05-14T17:52:55.232Z,53.20
2019-05-14T17:55:21.837Z,53.20
2019-05-14T18:00:49.211Z,53.50
2019-05-14T18:03:21.520Z,53.70
2019-05-14T18:05:53.335Z,53.80
2019-05-14T18:08:31.929Z,54.30
2019-05-14T18:11:04.960Z,54.50
2019-05-14T18:17:01.500Z,54.70
2019-05-14T18:19:31.981Z,54.90
2019-05-14T18:22:04.666Z,55.10
2019-05-14T18:24:39.632Z,55.40
2019-05-14T18:27:09.667Z,55.70
2019-05-14T18:29:41.622Z,55.60
2019-05-14T18:32:11.834Z,55.10
2019-05-14T18:34:42.338Z,54.60
2019-05-14T18:37:13.829Z,54.40
2019-05-14T18:39:48.386Z,54.10
2019-05-14T18:42:20.394Z,54.60
2019-05-14T18:44:50.576Z,54.80
2019-05-14T18:47:20.763Z,54.50
2019-05-14T18:49:50.934Z,54.40
2019-05-14T18:52:21.094Z,54.70
2019-05-14T18:54:51.210Z,54.90
2019-05-14T18:57:21.441Z,55.30
2019-05-14T18:59:51.747Z,55.10
2019-05-14T19:02:22.004Z,55.20
2019-05-14T19:04:53.791Z,55.80
2019-05-14T19:07:28.502Z,55.40
2019-05-14T19:10:00.630Z,55.50
2019-05-14T19:12:30.837Z,56.50
2019-05-14T19:15:27.772Z,56.00
2019-05-14T19:18:01.168Z,57.20
2019-05-14T19:20:34.999Z,56.10
2019-05-14T19:23:08.002Z,57.30
2019-05-14T19:25:38.926Z,57.50
2019-05-14T19:28:10.834Z,57.50
2019-05-14T19:30:41.149Z,57.10
2019-05-14T19:33:22.296Z,57.30
2019-05-14T19:35:56.931Z,58.10
2019-05-14T19:38:27.225Z,58.40
2019-05-14T19:40:58.971Z,58.20
2019-05-14T19:43:44.407Z,58.30
2019-05-14T19:46:18.965Z,58.30
2019-05-14T19:48:49.086Z,58.90
2019-05-14T19:51:20.503Z,58.50
2019-05-14T19:53:52.640Z,59.00
2019-05-14T19:56:23.303Z,59.40
2019-05-14T19:58:53.552Z,59.50
2019-05-14T20:01:25.475Z,59.20
2019-05-14T20:03:55.638Z,59.40
2019-05-14T20:06:29.585Z,59.70
2019-05-14T20:09:09.468Z,59.90
2019-05-14T20:11:42.325Z,60.20
2019-05-14T20:14:13.588Z,61.00
2019-05-14T20:16:43.723Z,62.80
2019-05-14T20:19:16.515Z,63.00
2019-05-14T20:21:48.143Z,63.70
2019-05-14T20:24:20.056Z,63.50
2019-05-14T20:26:57.580Z,64.10
2019-05-14T20:29:22.967Z,63.70
2019-05-14T20:32:14.977Z,63.90
2019-05-14T20:34:45.175Z,65.30
2019-05-14T20:37:15.283Z,65.70
2019-05-14T20:39:48.333Z,66.00
2019-05-14T20:42:19.126Z,67.00
2019-05-14T20:44:52.481Z,66.70
2019-05-14T20:47:24.075Z,66.20
2019-05-14T20:49:58.606Z,66.10
2019-05-14T20:59:44.375Z,68.00
2019-05-14T21:05:38.912Z,69.00
2019-05-14T21:08:13.397Z,68.40
2019-05-14T21:10:40.709Z,67.90
2019-05-14T21:13:10.919Z,67.30
2019-05-14T21:15:41.027Z,67.50
2019-05-14T21:18:11.084Z,67.70
2019-05-14T21:20:41.214Z,67.10
2019-05-14T21:23:11.396Z,66.80
2019-05-14T21:25:41.599Z,66.60
2019-05-14T21:28:11.783Z,68.20
2019-05-14T21:30:42.403Z,68.00
2019-05-14T21:33:12.487Z,67.70
2019-05-14T21:35:42.641Z,68.10
2019-05-14T21:38:12.749Z,67.80
2019-05-14T21:40:42.967Z,68.60
2019-05-14T21:43:13.030Z,68.70
2019-05-14T21:45:43.592Z,69.00
2019-05-14T21:48:13.597Z,69.00
2019-05-14T21:50:43.928Z,68.70
2019-05-14T21:53:14.126Z,68.70
2019-05-14T21:55:44.321Z,69.00
2019-05-14T21:58:14.540Z,69.50
2019-05-14T22:00:48.647Z,69.80
2019-05-14T22:03:20.875Z,69.90
2019-05-14T22:05:51.594Z,70.30
2019-05-14T22:08:22.013Z,70.50
2019-05-14T22:10:52.125Z,71.00
2019-05-14T22:13:22.259Z,71.60
2019-05-14T22:15:52.398Z,72.00
2019-05-14T22:18:24.035Z,72.20
2019-05-14T22:20:55.146Z,72.20
2019-05-14T22:23:25.269Z,72.00
2019-05-14T22:25:55.324Z,71.50
2019-05-14T22:28:28.722Z,71.80
2019-05-14T22:30:58.788Z,72.30
2019-05-14T22:33:28.902Z,71.10
2019-05-14T22:35:59.100Z,71.20
2019-05-14T22:38:29.482Z,71.00
2019-05-14T22:41:00.711Z,71.50
2019-05-14T22:43:30.920Z,71.50
2019-05-14T22:46:00.969Z,71.60
2019-05-14T22:48:31.450Z,71.70
2019-05-14T22:51:01.449Z,71.20
2019-05-14T22:53:31.499Z,72.00
2019-05-14T22:56:01.581Z,72.90
2019-05-14T22:58:32.737Z,72.20
2019-05-14T23:01:14.292Z,71.50
2019-05-14T23:03:34.920Z,71.40
2019-05-14T23:06:05.111Z,71.70
2019-05-14T23:08:35.245Z,71.70
2019-05-14T23:11:05.458Z,73.20
2019-05-14T23:13:35.449Z,73.60
2019-05-14T23:16:05.590Z,74.00
2019-05-14T23:18:38.002Z,73.30
2019-05-14T23:21:08.809Z,73.20
2019-05-14T23:23:39.478Z,72.60
2019-05-14T23:26:09.815Z,72.40
2019-05-14T23:28:45.365Z,74.00
2019-05-14T23:31:11.598Z,72.40
2019-05-14T23:33:41.969Z,73.50
2019-05-14T23:36:12.105Z,73.60
2019-05-14T23:38:42.296Z,74.20
2019-05-14T23:41:12.424Z,73.30
2019-05-14T23:43:42.393Z,73.50
2019-05-14T23:46:12.460Z,73.80
2019-05-14T23:48:42.526Z,74.10
2019-05-14T23:51:12.577Z,75.70
2019-05-14T23:53:42.919Z,74.50
2019-05-14T23:56:13.048Z,74.50
2019-05-14T23:58:54.228Z,74.70
